Terminal Aerodrome Forecast
Issued by NWS

Home | Current Version | Previous Version | Text Only | Print | Product List | Glossary On
Versions: 1 2 3 4 5 6 7 8 9 10 11 12 13 14 15 16 17 18 19 20 21 22 23 24 25 26
000
FTUS45 KREV 071125
TAFTVL
TAF
KTVL 071125Z 0712/0812 VRB04KT P6SM BKN110
     FM071900 04007KT P6SM FEW050 SCT110 SCT250
     FM072200 19009KT P6SM VCTS SCT050CB BKN090
     FM080100 19006KT P6SM FEW050 SCT100 BKN200
     FM080400 VRB04KT P6SM SCT110 BKN200=

USA.gov is the U.S. government's official web portal to all federal, state and local government web resources and services.